sensor_id;sensor_type;location;lat;lon;timestamp;P1;durP1;ratioP1;P2;durP2;ratioP2
61025;SDS011;46911;32.650;-16.902;2023-12-20T00:00:46;3.30;;;1.42;;
61025;SDS011;46911;32.650;-16.902;2023-12-20T00:02:47;8.73;;;2.50;;
61025;SDS011;46911;32.650;-16.902;2023-12-20T00:04:53;9.15;;;2.80;;
61025;SDS011;46911;32.650;-16.902;2023-12-20T00:06:55;7.78;;;2.78;;
61025;SDS011;46911;32.650;-16.902;2023-12-20T00:08:56;5.38;;;1.98;;
61025;SDS011;46911;32.650;-16.902;2023-12-20T00:11:00;4.45;;;1.63;;
61025;SDS011;46911;32.650;-16.902;2023-12-20T00:13:01;6.07;;;1.85;;
61025;SDS011;46911;32.650;-16.902;2023-12-20T00:15:02;3.10;;;1.15;;
61025;SDS011;46911;32.650;-16.902;2023-12-20T00:17:05;12.63;;;1.90;;
61025;SDS011;46911;32.650;-16.902;2023-12-20T00:19:09;6.93;;;1.85;;
61025;SDS011;46911;32.650;-16.902;2023-12-20T00:21:10;15.68;;;1.73;;
61025;SDS011;46911;32.650;-16.902;2023-12-20T00:23:13;5.32;;;1.35;;
61025;SDS011;46911;32.650;-16.902;2023-12-20T00:25:14;3.53;;;1.10;;
61025;SDS011;46911;32.650;-16.902;2023-12-20T00:27:18;3.17;;;1.27;;
61025;SDS011;46911;32.650;-16.902;2023-12-20T00:29:19;7.45;;;1.45;;
61025;SDS011;46911;32.650;-16.902;2023-12-20T00:31:22;9.15;;;1.30;;
61025;SDS011;46911;32.650;-16.902;2023-12-20T00:33:23;3.13;;;1.27;;
61025;SDS011;46911;32.650;-16.902;2023-12-20T00:35:24;8.27;;;0.98;;
61025;SDS011;46911;32.650;-16.902;2023-12-20T00:37:27;5.50;;;1.27;;
61025;SDS011;46911;32.650;-16.902;2023-12-20T00:39:28;8.38;;;1.52;;
61025;SDS011;46911;32.650;-16.902;2023-12-20T00:41:31;9.38;;;2.72;;
61025;SDS011;46911;32.650;-16.902;2023-12-20T00:43:32;12.63;;;3.13;;
61025;SDS011;46911;32.650;-16.902;2023-12-20T00:45:36;10.50;;;2.63;;
61025;SDS011;46911;32.650;-16.902;2023-12-20T00:47:37;7.70;;;2.63;;
61025;SDS011;46911;32.650;-16.902;2023-12-20T00:49:41;8.75;;;3.65;;
61025;SDS011;46911;32.650;-16.902;2023-12-20T00:51:45;5.65;;;2.03;;
61025;SDS011;46911;32.650;-16.902;2023-12-20T00:53:53;5.85;;;1.80;;
61025;SDS011;46911;32.650;-16.902;2023-12-20T00:55:55;7.55;;;1.83;;
61025;SDS011;46911;32.650;-16.902;2023-12-20T00:57:56;6.10;;;1.70;;
61025;SDS011;46911;32.650;-16.902;2023-12-20T00:59:59;7.15;;;2.17;;
61025;SDS011;46911;32.650;-16.902;2023-12-20T01:02:03;9.93;;;1.60;;
61025;SDS011;46911;32.650;-16.902;2023-12-20T01:04:06;17.75;;;2.13;;
61025;SDS011;46911;32.650;-16.902;2023-12-20T01:06:09;6.72;;;1.83;;
61025;SDS011;46911;32.650;-16.902;2023-12-20T01:08:10;9.60;;;2.00;;
61025;SDS011;46911;32.650;-16.902;2023-12-20T01:10:11;7.13;;;1.90;;
61025;SDS011;46911;32.650;-16.902;2023-12-20T01:12:17;7.75;;;2.17;;
61025;SDS011;46911;32.650;-16.902;2023-12-20T01:14:20;5.93;;;1.80;;
61025;SDS011;46911;32.650;-16.902;2023-12-20T01:16:21;11.93;;;1.75;;
61025;SDS011;46911;32.650;-16.902;2023-12-20T01:18:24;4.85;;;1.80;;
61025;SDS011;46911;32.650;-16.902;2023-12-20T01:20:25;6.55;;;1.65;;
61025;SDS011;46911;32.650;-16.902;2023-12-20T01:22:26;6.80;;;1.90;;
61025;SDS011;46911;32.650;-16.902;2023-12-20T01:24:30;10.40;;;2.65;;
61025;SDS011;46911;32.650;-16.902;2023-12-20T01:26:31;2.83;;;1.27;;
61025;SDS011;46911;32.650;-16.902;2023-12-20T01:28:35;5.75;;;1.20;;
61025;SDS011;46911;32.650;-16.902;2023-12-20T01:30:36;6.13;;;1.98;;
61025;SDS011;46911;32.650;-16.902;2023-12-20T01:32:40;3.50;;;1.05;;
61025;SDS011;46911;32.650;-16.902;2023-12-20T01:34:45;8.20;;;1.63;;
61025;SDS011;46911;32.650;-16.902;2023-12-20T01:36:46;9.10;;;1.50;;
61025;SDS011;46911;32.650;-16.902;2023-12-20T01:38:47;7.63;;;1.77;;
61025;SDS011;46911;32.650;-16.902;2023-12-20T01:40:50;6.30;;;1.90;;
61025;SDS011;46911;32.650;-16.902;2023-12-20T01:43:00;6.18;;;1.50;;
61025;SDS011;46911;32.650;-16.902;2023-12-20T01:47:02;7.00;;;2.15;;
61025;SDS011;46911;32.650;-16.902;2023-12-20T01:49:04;12.45;;;2.63;;
61025;SDS011;46911;32.650;-16.902;2023-12-20T01:51:05;14.27;;;3.35;;
61025;SDS011;46911;32.650;-16.902;2023-12-20T01:53:06;10.98;;;3.47;;
61025;SDS011;46911;32.650;-16.902;2023-12-20T01:55:14;10.82;;;2.83;;
61025;SDS011;46911;32.650;-16.902;2023-12-20T01:57:16;16.13;;;3.60;;
61025;SDS011;46911;32.650;-16.902;2023-12-20T01:59:20;10.38;;;3.30;;
61025;SDS011;46911;32.650;-16.902;2023-12-20T02:01:27;7.90;;;3.40;;
61025;SDS011;46911;32.650;-16.902;2023-12-20T02:03:28;11.15;;;3.33;;
61025;SDS011;46911;32.650;-16.902;2023-12-20T02:05:30;10.43;;;3.20;;
61025;SDS011;46911;32.650;-16.902;2023-12-20T02:07:34;13.30;;;4.13;;
61025;SDS011;46911;32.650;-16.902;2023-12-20T02:09:35;11.52;;;4.72;;
61025;SDS011;46911;32.650;-16.902;2023-12-20T02:11:38;14.88;;;4.18;;
61025;SDS011;46911;32.650;-16.902;2023-12-20T02:13:42;15.30;;;4.20;;
61025;SDS011;46911;32.650;-16.902;2023-12-20T02:15:43;18.95;;;6.45;;
61025;SDS011;46911;32.650;-16.902;2023-12-20T02:17:44;18.30;;;7.00;;
61025;SDS011;46911;32.650;-16.902;2023-12-20T02:19:46;23.17;;;8.73;;
61025;SDS011;46911;32.650;-16.902;2023-12-20T02:21:47;21.75;;;9.10;;
61025;SDS011;46911;32.650;-16.902;2023-12-20T02:23:51;20.95;;;7.60;;
61025;SDS011;46911;32.650;-16.902;2023-12-20T02:25:55;19.50;;;7.07;;
61025;SDS011;46911;32.650;-16.902;2023-12-20T02:27:56;16.67;;;6.05;;
61025;SDS011;46911;32.650;-16.902;2023-12-20T02:29:59;12.90;;;4.72;;
61025;SDS011;46911;32.650;-16.902;2023-12-20T02:32:00;11.55;;;3.97;;
61025;SDS011;46911;32.650;-16.902;2023-12-20T02:34:03;10.20;;;3.40;;
61025;SDS011;46911;32.650;-16.902;2023-12-20T02:36:06;14.30;;;2.85;;
61025;SDS011;46911;32.650;-16.902;2023-12-20T02:38:09;13.93;;;2.90;;
61025;SDS011;46911;32.650;-16.902;2023-12-20T02:40:13;5.63;;;2.28;;
61025;SDS011;46911;32.650;-16.902;2023-12-20T02:42:14;5.38;;;1.75;;
61025;SDS011;46911;32.650;-16.902;2023-12-20T02:44:17;3.95;;;1.77;;
61025;SDS011;46911;32.650;-16.902;2023-12-20T02:46:18;5.45;;;1.83;;
61025;SDS011;46911;32.650;-16.902;2023-12-20T02:48:22;5.97;;;1.70;;
61025;SDS011;46911;32.650;-16.902;2023-12-20T02:50:25;10.82;;;2.65;;
61025;SDS011;46911;32.650;-16.902;2023-12-20T02:52:28;14.80;;;2.00;;
61025;SDS011;46911;32.650;-16.902;2023-12-20T02:54:32;7.80;;;1.73;;
61025;SDS011;46911;32.650;-16.902;2023-12-20T02:56:33;5.18;;;1.65;;
61025;SDS011;46911;32.650;-16.902;2023-12-20T02:58:34;3.42;;;1.27;;
61025;SDS011;46911;32.650;-16.902;2023-12-20T03:00:35;6.18;;;1.50;;
61025;SDS011;46911;32.650;-16.902;2023-12-20T03:02:36;12.82;;;1.75;;
61025;SDS011;46911;32.650;-16.902;2023-12-20T03:04:40;9.70;;;2.00;;
61025;SDS011;46911;32.650;-16.902;2023-12-20T03:06:46;10.80;;;1.50;;
61025;SDS011;46911;32.650;-16.902;2023-12-20T03:08:47;5.78;;;1.20;;
61025;SDS011;46911;32.650;-16.902;2023-12-20T03:10:51;10.68;;;1.92;;
61025;SDS011;46911;32.650;-16.902;2023-12-20T03:12:54;13.07;;;1.63;;
61025;SDS011;46911;32.650;-16.902;2023-12-20T03:14:57;6.50;;;1.50;;
61025;SDS011;46911;32.650;-16.902;2023-12-20T03:16:58;10.38;;;1.70;;
61025;SDS011;46911;32.650;-16.902;2023-12-20T03:18:59;9.88;;;2.03;;
61025;SDS011;46911;32.650;-16.902;2023-12-20T03:21:04;5.75;;;1.42;;
61025;SDS011;46911;32.650;-16.902;2023-12-20T03:23:06;3.53;;;1.38;;
61025;SDS011;46911;32.650;-16.902;2023-12-20T03:25:07;6.68;;;1.88;;
61025;SDS011;46911;32.650;-16.902;2023-12-20T03:27:08;6.47;;;1.13;;
61025;SDS011;46911;32.650;-16.902;2023-12-20T03:29:09;5.95;;;1.70;;
61025;SDS011;46911;32.650;-16.902;2023-12-20T03:31:17;4.40;;;1.33;;
61025;SDS011;46911;32.650;-16.902;2023-12-20T03:33:18;5.28;;;1.42;;
61025;SDS011;46911;32.650;-16.902;2023-12-20T03:35:19;6.72;;;1.70;;
61025;SDS011;46911;32.650;-16.902;2023-12-20T03:37:21;4.65;;;1.50;;
61025;SDS011;46911;32.650;-16.902;2023-12-20T03:39:22;8.63;;;1.70;;
61025;SDS011;46911;32.650;-16.902;2023-12-20T03:41:26;13.55;;;1.80;;
61025;SDS011;46911;32.650;-16.902;2023-12-20T03:43:26;7.55;;;1.38;;
61025;SDS011;46911;32.650;-16.902;2023-12-20T03:45:27;9.43;;;1.17;;
61025;SDS011;46911;32.650;-16.902;2023-12-20T03:47:33;5.22;;;1.55;;
61025;SDS011;46911;32.650;-16.902;2023-12-20T03:49:34;5.90;;;1.35;;
61025;SDS011;46911;32.650;-16.902;2023-12-20T03:51:37;13.02;;;1.45;;
61025;SDS011;46911;32.650;-16.902;2023-12-20T03:53:38;6.80;;;1.50;;
61025;SDS011;46911;32.650;-16.902;2023-12-20T03:55:46;4.40;;;1.10;;
61025;SDS011;46911;32.650;-16.902;2023-12-20T03:57:47;5.97;;;0.93;;
61025;SDS011;46911;32.650;-16.902;2023-12-20T03:59:48;9.02;;;1.85;;
61025;SDS011;46911;32.650;-16.902;2023-12-20T04:01:54;4.63;;;1.15;;
61025;SDS011;46911;32.650;-16.902;2023-12-20T04:03:57;6.75;;;1.25;;
61025;SDS011;46911;32.650;-16.902;2023-12-20T04:06:02;7.10;;;1.05;;
61025;SDS011;46911;32.650;-16.902;2023-12-20T04:08:03;10.85;;;1.75;;
61025;SDS011;46911;32.650;-16.902;2023-12-20T04:10:05;6.80;;;1.40;;
61025;SDS011;46911;32.650;-16.902;2023-12-20T04:12:06;9.20;;;1.75;;
61025;SDS011;46911;32.650;-16.902;2023-12-20T04:14:07;7.55;;;1.60;;
61025;SDS011;46911;32.650;-16.902;2023-12-20T04:16:10;8.45;;;1.55;;
61025;SDS011;46911;32.650;-16.902;2023-12-20T04:18:11;6.53;;;1.30;;
61025;SDS011;46911;32.650;-16.902;2023-12-20T04:20:12;5.32;;;1.30;;
61025;SDS011;46911;32.650;-16.902;2023-12-20T04:22:13;13.23;;;1.88;;
61025;SDS011;46911;32.650;-16.902;2023-12-20T04:24:14;5.97;;;1.08;;
61025;SDS011;46911;32.650;-16.902;2023-12-20T04:26:15;10.25;;;1.40;;
61025;SDS011;46911;32.650;-16.902;2023-12-20T04:28:16;13.25;;;2.05;;
61025;SDS011;46911;32.650;-16.902;2023-12-20T04:30:19;5.63;;;1.48;;
61025;SDS011;46911;32.650;-16.902;2023-12-20T04:32:20;6.47;;;1.17;;
61025;SDS011;46911;32.650;-16.902;2023-12-20T04:34:24;12.50;;;1.15;;
61025;SDS011;46911;32.650;-16.902;2023-12-20T04:36:25;4.30;;;1.13;;
61025;SDS011;46911;32.650;-16.902;2023-12-20T04:38:30;10.60;;;1.67;;
61025;SDS011;46911;32.650;-16.902;2023-12-20T04:40:31;9.05;;;1.42;;
61025;SDS011;46911;32.650;-16.902;2023-12-20T04:42:34;6.95;;;1.33;;
61025;SDS011;46911;32.650;-16.902;2023-12-20T04:44:38;10.75;;;1.27;;
61025;SDS011;46911;32.650;-16.902;2023-12-20T04:46:39;5.57;;;1.13;;
61025;SDS011;46911;32.650;-16.902;2023-12-20T04:48:43;4.22;;;1.17;;
61025;SDS011;46911;32.650;-16.902;2023-12-20T04:50:44;8.02;;;0.98;;
61025;SDS011;46911;32.650;-16.902;2023-12-20T04:52:45;7.95;;;1.13;;
61025;SDS011;46911;32.650;-16.902;2023-12-20T04:54:48;6.18;;;1.10;;
61025;SDS011;46911;32.650;-16.902;2023-12-20T04:56:51;8.45;;;1.00;;
61025;SDS011;46911;32.650;-16.902;2023-12-20T04:58:52;6.47;;;1.23;;
61025;SDS011;46911;32.650;-16.902;2023-12-20T05:00:55;6.13;;;1.20;;
61025;SDS011;46911;32.650;-16.902;2023-12-20T05:02:56;5.57;;;1.05;;
61025;SDS011;46911;32.650;-16.902;2023-12-20T05:05:00;6.53;;;0.80;;
61025;SDS011;46911;32.650;-16.902;2023-12-20T05:07:01;6.78;;;1.00;;
61025;SDS011;46911;32.650;-16.902;2023-12-20T05:09:02;7.38;;;0.98;;
61025;SDS011;46911;32.650;-16.902;2023-12-20T05:11:03;6.43;;;1.13;;
61025;SDS011;46911;32.650;-16.902;2023-12-20T05:13:05;5.95;;;1.88;;
61025;SDS011;46911;32.650;-16.902;2023-12-20T05:15:06;10.88;;;1.50;;
61025;SDS011;46911;32.650;-16.902;2023-12-20T05:17:09;5.93;;;1.00;;
61025;SDS011;46911;32.650;-16.902;2023-12-20T05:19:15;2.70;;;1.23;;
61025;SDS011;46911;32.650;-16.902;2023-12-20T05:21:16;5.95;;;1.55;;
61025;SDS011;46911;32.650;-16.902;2023-12-20T05:23:16;5.30;;;1.30;;
61025;SDS011;46911;32.650;-16.902;2023-12-20T05:25:18;6.22;;;1.20;;
61025;SDS011;46911;32.650;-16.902;2023-12-20T05:27:19;5.93;;;1.30;;
61025;SDS011;46911;32.650;-16.902;2023-12-20T05:29:22;6.63;;;0.90;;
61025;SDS011;46911;32.650;-16.902;2023-12-20T05:31:23;6.03;;;1.17;;
61025;SDS011;46911;32.650;-16.902;2023-12-20T05:33:26;5.15;;;1.40;;
61025;SDS011;46911;32.650;-16.902;2023-12-20T05:35:27;5.47;;;1.38;;
61025;SDS011;46911;32.650;-16.902;2023-12-20T05:37:28;4.90;;;1.40;;
61025;SDS011;46911;32.650;-16.902;2023-12-20T05:39:29;11.25;;;1.30;;
61025;SDS011;46911;32.650;-16.902;2023-12-20T05:41:33;11.18;;;1.52;;
61025;SDS011;46911;32.650;-16.902;2023-12-20T05:43:34;7.82;;;1.30;;
61025;SDS011;46911;32.650;-16.902;2023-12-20T05:45:37;4.95;;;1.20;;
61025;SDS011;46911;32.650;-16.902;2023-12-20T05:47:40;3.85;;;1.20;;
61025;SDS011;46911;32.650;-16.902;2023-12-20T05:49:41;5.40;;;1.10;;
61025;SDS011;46911;32.650;-16.902;2023-12-20T05:51:44;13.82;;;1.80;;
61025;SDS011;46911;32.650;-16.902;2023-12-20T05:53:47;4.75;;;0.80;;
61025;SDS011;46911;32.650;-16.902;2023-12-20T05:55:52;3.60;;;1.33;;
61025;SDS011;46911;32.650;-16.902;2023-12-20T05:57:53;5.35;;;1.08;;
61025;SDS011;46911;32.650;-16.902;2023-12-20T05:59:54;8.18;;;1.17;;
61025;SDS011;46911;32.650;-16.902;2023-12-20T06:01:55;8.02;;;1.42;;
61025;SDS011;46911;32.650;-16.902;2023-12-20T06:03:58;10.55;;;1.40;;
61025;SDS011;46911;32.650;-16.902;2023-12-20T06:06:05;5.80;;;1.67;;
61025;SDS011;46911;32.650;-16.902;2023-12-20T06:08:12;8.98;;;1.75;;
61025;SDS011;46911;32.650;-16.902;2023-12-20T06:10:13;7.00;;;0.95;;
61025;SDS011;46911;32.650;-16.902;2023-12-20T06:12:14;4.72;;;1.23;;
61025;SDS011;46911;32.650;-16.902;2023-12-20T06:14:15;6.13;;;1.13;;
61025;SDS011;46911;32.650;-16.902;2023-12-20T06:16:18;5.13;;;1.10;;
61025;SDS011;46911;32.650;-16.902;2023-12-20T06:18:22;8.13;;;1.08;;
61025;SDS011;46911;32.650;-16.902;2023-12-20T06:20:26;8.13;;;1.50;;
61025;SDS011;46911;32.650;-16.902;2023-12-20T06:22:29;9.15;;;1.35;;
61025;SDS011;46911;32.650;-16.902;2023-12-20T06:24:32;5.45;;;1.27;;
61025;SDS011;46911;32.650;-16.902;2023-12-20T06:26:34;9.13;;;1.75;;
61025;SDS011;46911;32.650;-16.902;2023-12-20T06:28:40;5.50;;;1.20;;
61025;SDS011;46911;32.650;-16.902;2023-12-20T06:30:41;8.60;;;1.50;;
61025;SDS011;46911;32.650;-16.902;2023-12-20T06:32:44;7.05;;;1.90;;
61025;SDS011;46911;32.650;-16.902;2023-12-20T06:34:47;9.02;;;2.05;;
61025;SDS011;46911;32.650;-16.902;2023-12-20T06:36:50;6.53;;;1.55;;
61025;SDS011;46911;32.650;-16.902;2023-12-20T06:38:51;8.43;;;1.85;;
61025;SDS011;46911;32.650;-16.902;2023-12-20T06:40:54;11.68;;;1.65;;
61025;SDS011;46911;32.650;-16.902;2023-12-20T06:42:59;10.95;;;1.70;;
61025;SDS011;46911;32.650;-16.902;2023-12-20T06:45:00;7.50;;;1.80;;
61025;SDS011;46911;32.650;-16.902;2023-12-20T06:47:03;5.75;;;1.50;;
61025;SDS011;46911;32.650;-16.902;2023-12-20T06:49:04;8.55;;;2.10;;
61025;SDS011;46911;32.650;-16.902;2023-12-20T06:51:10;9.15;;;1.58;;
61025;SDS011;46911;32.650;-16.902;2023-12-20T06:53:13;5.97;;;1.42;;
61025;SDS011;46911;32.650;-16.902;2023-12-20T06:55:17;6.07;;;1.48;;
61025;SDS011;46911;32.650;-16.902;2023-12-20T06:57:20;6.60;;;1.38;;
61025;SDS011;46911;32.650;-16.902;2023-12-20T06:59:26;7.68;;;1.45;;
61025;SDS011;46911;32.650;-16.902;2023-12-20T07:01:27;17.10;;;1.52;;
61025;SDS011;46911;32.650;-16.902;2023-12-20T07:03:28;11.00;;;2.05;;
61025;SDS011;46911;32.650;-16.902;2023-12-20T07:05:32;5.50;;;1.90;;
61025;SDS011;46911;32.650;-16.902;2023-12-20T07:07:33;10.85;;;2.55;;
61025;SDS011;46911;32.650;-16.902;2023-12-20T07:09:35;5.25;;;1.73;;
61025;SDS011;46911;32.650;-16.902;2023-12-20T07:11:36;11.48;;;1.55;;
61025;SDS011;46911;32.650;-16.902;2023-12-20T07:13:39;8.90;;;1.80;;
61025;SDS011;46911;32.650;-16.902;2023-12-20T07:15:40;6.88;;;1.50;;
61025;SDS011;46911;32.650;-16.902;2023-12-20T07:17:41;15.23;;;1.48;;
61025;SDS011;46911;32.650;-16.902;2023-12-20T07:19:42;9.02;;;1.55;;
61025;SDS011;46911;32.650;-16.902;2023-12-20T07:21:46;7.63;;;1.52;;
61025;SDS011;46911;32.650;-16.902;2023-12-20T07:23:47;5.72;;;1.58;;
61025;SDS011;46911;32.650;-16.902;2023-12-20T07:25:48;7.28;;;1.65;;
61025;SDS011;46911;32.650;-16.902;2023-12-20T07:27:49;6.32;;;1.92;;
61025;SDS011;46911;32.650;-16.902;2023-12-20T07:29:52;8.85;;;2.05;;
61025;SDS011;46911;32.650;-16.902;2023-12-20T07:31:53;10.55;;;2.10;;
61025;SDS011;46911;32.650;-16.902;2023-12-20T07:33:54;7.10;;;1.90;;
61025;SDS011;46911;32.650;-16.902;2023-12-20T07:35:55;10.52;;;1.70;;
61025;SDS011;46911;32.650;-16.902;2023-12-20T07:37:56;6.35;;;1.58;;
61025;SDS011;46911;32.650;-16.902;2023-12-20T07:40:00;6.15;;;1.30;;
61025;SDS011;46911;32.650;-16.902;2023-12-20T07:42:03;13.57;;;1.90;;
61025;SDS011;46911;32.650;-16.902;2023-12-20T07:44:07;10.65;;;1.73;;
61025;SDS011;46911;32.650;-16.902;2023-12-20T07:46:08;9.20;;;1.60;;
61025;SDS011;46911;32.650;-16.902;2023-12-20T07:48:12;6.25;;;1.50;;
61025;SDS011;46911;32.650;-16.902;2023-12-20T07:50:16;4.10;;;1.23;;
61025;SDS011;46911;32.650;-16.902;2023-12-20T07:52:17;9.63;;;1.75;;
61025;SDS011;46911;32.650;-16.902;2023-12-20T07:54:19;8.23;;;1.92;;
61025;SDS011;46911;32.650;-16.902;2023-12-20T07:56:20;7.10;;;1.90;;
61025;SDS011;46911;32.650;-16.902;2023-12-20T07:58:21;4.53;;;1.77;;
61025;SDS011;46911;32.650;-16.902;2023-12-20T08:00:27;9.63;;;2.00;;
61025;SDS011;46911;32.650;-16.902;2023-12-20T08:02:28;7.07;;;1.67;;
61025;SDS011;46911;32.650;-16.902;2023-12-20T08:04:29;6.93;;;1.75;;
61025;SDS011;46911;32.650;-16.902;2023-12-20T08:06:32;9.45;;;2.03;;
61025;SDS011;46911;32.650;-16.902;2023-12-20T08:08:33;13.25;;;2.00;;
61025;SDS011;46911;32.650;-16.902;2023-12-20T08:10:35;8.55;;;2.17;;
61025;SDS011;46911;32.650;-16.902;2023-12-20T08:12:36;9.18;;;2.80;;
61025;SDS011;46911;32.650;-16.902;2023-12-20T08:14:37;8.90;;;2.80;;
61025;SDS011;46911;32.650;-16.902;2023-12-20T08:16:40;13.82;;;2.40;;
61025;SDS011;46911;32.650;-16.902;2023-12-20T08:18:47;7.38;;;2.28;;
61025;SDS011;46911;32.650;-16.902;2023-12-20T08:20:48;5.80;;;1.77;;
61025;SDS011;46911;32.650;-16.902;2023-12-20T08:22:57;29.83;;;2.53;;
61025;SDS011;46911;32.650;-16.902;2023-12-20T08:25:01;22.65;;;3.30;;
61025;SDS011;46911;32.650;-16.902;2023-12-20T08:27:04;17.75;;;2.65;;
61025;SDS011;46911;32.650;-16.902;2023-12-20T08:29:05;12.18;;;2.55;;
61025;SDS011;46911;32.650;-16.902;2023-12-20T08:31:06;11.15;;;2.40;;
61025;SDS011;46911;32.650;-16.902;2023-12-20T08:33:09;13.73;;;2.08;;
61025;SDS011;46911;32.650;-16.902;2023-12-20T08:35:13;10.63;;;2.05;;
61025;SDS011;46911;32.650;-16.902;2023-12-20T08:37:14;6.45;;;2.20;;
61025;SDS011;46911;32.650;-16.902;2023-12-20T08:39:15;9.32;;;2.60;;
61025;SDS011;46911;32.650;-16.902;2023-12-20T08:41:17;14.70;;;2.72;;
61025;SDS011;46911;32.650;-16.902;2023-12-20T08:43:21;18.83;;;4.00;;
61025;SDS011;46911;32.650;-16.902;2023-12-20T08:45:22;14.80;;;2.70;;
61025;SDS011;46911;32.650;-16.902;2023-12-20T08:47:23;13.13;;;3.00;;
61025;SDS011;46911;32.650;-16.902;2023-12-20T08:49:24;10.90;;;2.38;;
61025;SDS011;46911;32.650;-16.902;2023-12-20T08:51:28;8.88;;;2.38;;
61025;SDS011;46911;32.650;-16.902;2023-12-20T08:53:32;11.82;;;2.72;;
61025;SDS011;46911;32.650;-16.902;2023-12-20T08:55:33;9.50;;;2.15;;
61025;SDS011;46911;32.650;-16.902;2023-12-20T08:57:34;17.38;;;3.25;;
61025;SDS011;46911;32.650;-16.902;2023-12-20T08:59:35;21.33;;;3.17;;
61025;SDS011;46911;32.650;-16.902;2023-12-20T09:01:36;6.80;;;2.00;;
61025;SDS011;46911;32.650;-16.902;2023-12-20T09:03:37;4.28;;;1.58;;
61025;SDS011;46911;32.650;-16.902;2023-12-20T09:05:41;7.25;;;2.03;;
61025;SDS011;46911;32.650;-16.902;2023-12-20T09:07:42;13.48;;;1.90;;
61025;SDS011;46911;32.650;-16.902;2023-12-20T09:09:49;15.30;;;2.38;;
61025;SDS011;46911;32.650;-16.902;2023-12-20T09:11:52;10.65;;;2.20;;
61025;SDS011;46911;32.650;-16.902;2023-12-20T09:13:53;6.32;;;1.95;;
61025;SDS011;46911;32.650;-16.902;2023-12-20T09:15:56;9.95;;;2.00;;
61025;SDS011;46911;32.650;-16.902;2023-12-20T09:18:00;15.98;;;2.88;;
61025;SDS011;46911;32.650;-16.902;2023-12-20T09:20:01;13.57;;;2.40;;
61025;SDS011;46911;32.650;-16.902;2023-12-20T09:22:03;19.63;;;2.55;;
61025;SDS011;46911;32.650;-16.902;2023-12-20T09:24:04;15.68;;;2.53;;
61025;SDS011;46911;32.650;-16.902;2023-12-20T09:26:07;13.32;;;2.42;;
61025;SDS011;46911;32.650;-16.902;2023-12-20T09:28:08;6.93;;;2.33;;
61025;SDS011;46911;32.650;-16.902;2023-12-20T09:30:14;10.07;;;2.58;;
61025;SDS011;46911;32.650;-16.902;2023-12-20T09:32:17;12.77;;;2.13;;
61025;SDS011;46911;32.650;-16.902;2023-12-20T09:34:20;12.85;;;2.20;;
61025;SDS011;46911;32.650;-16.902;2023-12-20T09:36:22;17.42;;;2.78;;
61025;SDS011;46911;32.650;-16.902;2023-12-20T09:38:25;21.17;;;2.95;;
61025;SDS011;46911;32.650;-16.902;2023-12-20T09:40:31;10.77;;;1.92;;
61025;SDS011;46911;32.650;-16.902;2023-12-20T09:42:38;14.55;;;1.92;;
61025;SDS011;46911;32.650;-16.902;2023-12-20T09:44:49;10.55;;;2.28;;
61025;SDS011;46911;32.650;-16.902;2023-12-20T09:46:50;6.32;;;2.10;;
61025;SDS011;46911;32.650;-16.902;2023-12-20T09:48:55;7.68;;;2.38;;
61025;SDS011;46911;32.650;-16.902;2023-12-20T09:50:58;16.13;;;2.33;;
61025;SDS011;46911;32.650;-16.902;2023-12-20T09:53:02;7.50;;;1.80;;
61025;SDS011;46911;32.650;-16.902;2023-12-20T09:55:07;14.85;;;2.90;;
61025;SDS011;46911;32.650;-16.902;2023-12-20T09:57:09;9.05;;;1.60;;
61025;SDS011;46911;32.650;-16.902;2023-12-20T09:59:10;17.40;;;2.15;;
61025;SDS011;46911;32.650;-16.902;2023-12-20T10:01:11;10.95;;;2.00;;
61025;SDS011;46911;32.650;-16.902;2023-12-20T10:03:13;5.15;;;1.50;;
61025;SDS011;46911;32.650;-16.902;2023-12-20T10:05:19;13.27;;;2.08;;
61025;SDS011;46911;32.650;-16.902;2023-12-20T10:07:29;16.30;;;1.90;;
61025;SDS011;46911;32.650;-16.902;2023-12-20T10:09:32;8.85;;;1.83;;
61025;SDS011;46911;32.650;-16.902;2023-12-20T10:11:37;13.52;;;1.52;;
61025;SDS011;46911;32.650;-16.902;2023-12-20T10:13:42;5.45;;;1.20;;
61025;SDS011;46911;32.650;-16.902;2023-12-20T10:15:43;7.65;;;1.42;;
61025;SDS011;46911;32.650;-16.902;2023-12-20T10:17:44;6.78;;;1.33;;
61025;SDS011;46911;32.650;-16.902;2023-12-20T10:19:49;21.38;;;3.10;;
61025;SDS011;46911;32.650;-16.902;2023-12-20T10:21:50;4.45;;;1.15;;
61025;SDS011;46911;32.650;-16.902;2023-12-20T10:23:54;4.65;;;1.17;;
61025;SDS011;46911;32.650;-16.902;2023-12-20T10:25:58;8.77;;;1.13;;
61025;SDS011;46911;32.650;-16.902;2023-12-20T10:28:09;19.88;;;2.55;;
61025;SDS011;46911;32.650;-16.902;2023-12-20T10:30:21;4.43;;;1.17;;
61025;SDS011;46911;32.650;-16.902;2023-12-20T10:32:26;6.93;;;1.35;;
61025;SDS011;46911;32.650;-16.902;2023-12-20T10:34:32;4.55;;;1.30;;
61025;SDS011;46911;32.650;-16.902;2023-12-20T10:36:33;3.28;;;0.93;;
61025;SDS011;46911;32.650;-16.902;2023-12-20T10:38:39;12.15;;;0.90;;
61025;SDS011;46911;32.650;-16.902;2023-12-20T10:40:43;2.60;;;0.77;;
61025;SDS011;46911;32.650;-16.902;2023-12-20T10:42:46;7.72;;;0.93;;
61025;SDS011;46911;32.650;-16.902;2023-12-20T10:44:48;3.92;;;1.08;;
61025;SDS011;46911;32.650;-16.902;2023-12-20T10:46:54;7.88;;;1.23;;
61025;SDS011;46911;32.650;-16.902;2023-12-20T10:48:58;3.08;;;0.85;;
61025;SDS011;46911;32.650;-16.902;2023-12-20T10:51:02;6.43;;;1.00;;
61025;SDS011;46911;32.650;-16.902;2023-12-20T10:53:09;5.18;;;1.35;;
61025;SDS011;46911;32.650;-16.902;2023-12-20T10:55:13;6.72;;;1.10;;
61025;SDS011;46911;32.650;-16.902;2023-12-20T10:57:14;7.38;;;1.10;;
61025;SDS011;46911;32.650;-16.902;2023-12-20T10:59:19;19.20;;;1.73;;
61025;SDS011;46911;32.650;-16.902;2023-12-20T11:01:20;3.83;;;0.90;;
61025;SDS011;46911;32.650;-16.902;2023-12-20T11:03:22;4.32;;;0.90;;
61025;SDS011;46911;32.650;-16.902;2023-12-20T11:08:03;6.78;;;1.30;;
61025;SDS011;46911;32.650;-16.902;2023-12-20T11:10:13;8.27;;;1.23;;
61025;SDS011;46911;32.650;-16.902;2023-12-20T11:12:24;14.52;;;1.58;;
61025;SDS011;46911;32.650;-16.902;2023-12-20T11:16:40;6.93;;;1.65;;
61025;SDS011;46911;32.650;-16.902;2023-12-20T11:18:41;5.93;;;1.17;;
61025;SDS011;46911;32.650;-16.902;2023-12-20T11:20:45;5.00;;;0.75;;
61025;SDS011;46911;32.650;-16.902;2023-12-20T11:22:53;3.92;;;1.00;;
61025;SDS011;46911;32.650;-16.902;2023-12-20T11:25:05;8.38;;;1.00;;
61025;SDS011;46911;32.650;-16.902;2023-12-20T11:27:16;5.77;;;0.93;;
61025;SDS011;46911;32.650;-16.902;2023-12-20T11:29:29;5.78;;;1.20;;
61025;SDS011;46911;32.650;-16.902;2023-12-20T11:31:40;3.92;;;0.70;;
61025;SDS011;46911;32.650;-16.902;2023-12-20T11:33:44;4.10;;;0.80;;
61025;SDS011;46911;32.650;-16.902;2023-12-20T11:35:49;3.50;;;0.93;;
61025;SDS011;46911;32.650;-16.902;2023-12-20T11:37:50;4.20;;;0.80;;
61025;SDS011;46911;32.650;-16.902;2023-12-20T11:42:09;7.22;;;0.80;;
61025;SDS011;46911;32.650;-16.902;2023-12-20T11:44:13;8.98;;;0.95;;
61025;SDS011;46911;32.650;-16.902;2023-12-20T11:46:17;5.60;;;1.00;;
61025;SDS011;46911;32.650;-16.902;2023-12-20T11:48:19;10.38;;;1.10;;
61025;SDS011;46911;32.650;-16.902;2023-12-20T11:50:20;7.28;;;1.20;;
61025;SDS011;46911;32.650;-16.902;2023-12-20T11:52:23;2.70;;;0.70;;
61025;SDS011;46911;32.650;-16.902;2023-12-20T11:54:23;9.02;;;0.90;;
61025;SDS011;46911;32.650;-16.902;2023-12-20T11:56:27;3.90;;;0.70;;
61025;SDS011;46911;32.650;-16.902;2023-12-20T11:58:28;4.20;;;0.90;;
61025;SDS011;46911;32.650;-16.902;2023-12-20T12:00:32;9.73;;;0.88;;
61025;SDS011;46911;32.650;-16.902;2023-12-20T12:02:35;10.15;;;1.15;;
61025;SDS011;46911;32.650;-16.902;2023-12-20T12:04:36;4.85;;;1.10;;